sensor_id;sensor_type;location;lat;lon;timestamp;P1;durP1;ratioP1;P2;durP2;ratioP2
69890;SDS011;57170;43.964;21.262;2023-04-24T00:00:56;13.82;;;10.05;;
69890;SDS011;57170;43.964;21.262;2023-04-24T00:03:24;15.40;;;10.45;;
69890;SDS011;57170;43.964;21.262;2023-04-24T00:05:52;23.23;;;13.93;;
69890;SDS011;57170;43.964;21.262;2023-04-24T00:08:18;19.73;;;11.85;;
69890;SDS011;57170;43.964;21.262;2023-04-24T00:10:45;26.55;;;16.83;;
69890;SDS011;57170;43.964;21.262;2023-04-24T00:13:11;26.75;;;16.77;;
69890;SDS011;57170;43.964;21.262;2023-04-24T00:15:37;34.38;;;19.20;;
69890;SDS011;57170;43.964;21.262;2023-04-24T00:18:03;23.02;;;14.45;;
69890;SDS011;57170;43.964;21.262;2023-04-24T00:20:29;15.15;;;11.88;;
69890;SDS011;57170;43.964;21.262;2023-04-24T00:22:57;19.27;;;11.38;;
69890;SDS011;57170;43.964;21.262;2023-04-24T00:25:23;15.82;;;9.65;;
69890;SDS011;57170;43.964;21.262;2023-04-24T00:27:49;16.38;;;11.35;;
69890;SDS011;57170;43.964;21.262;2023-04-24T00:30:15;18.55;;;10.75;;
69890;SDS011;57170;43.964;21.262;2023-04-24T00:32:41;21.10;;;11.95;;
69890;SDS011;57170;43.964;21.262;2023-04-24T00:35:08;44.10;;;25.85;;
69890;SDS011;57170;43.964;21.262;2023-04-24T00:37:34;34.97;;;20.15;;
69890;SDS011;57170;43.964;21.262;2023-04-24T00:40:00;47.95;;;23.02;;
69890;SDS011;57170;43.964;21.262;2023-04-24T00:42:27;55.42;;;25.92;;
69890;SDS011;57170;43.964;21.262;2023-04-24T00:44:53;57.85;;;32.13;;
69890;SDS011;57170;43.964;21.262;2023-04-24T00:47:19;20.92;;;11.98;;
69890;SDS011;57170;43.964;21.262;2023-04-24T00:49:47;13.85;;;9.75;;
69890;SDS011;57170;43.964;21.262;2023-04-24T00:52:13;16.58;;;11.48;;
69890;SDS011;57170;43.964;21.262;2023-04-24T00:54:43;15.98;;;11.88;;
69890;SDS011;57170;43.964;21.262;2023-04-24T00:57:09;21.45;;;12.02;;
69890;SDS011;57170;43.964;21.262;2023-04-24T00:59:36;21.45;;;12.10;;
69890;SDS011;57170;43.964;21.262;2023-04-24T01:02:02;17.08;;;11.93;;
69890;SDS011;57170;43.964;21.262;2023-04-24T01:04:28;22.67;;;13.20;;
69890;SDS011;57170;43.964;21.262;2023-04-24T01:06:54;21.20;;;13.27;;
69890;SDS011;57170;43.964;21.262;2023-04-24T01:09:21;17.45;;;12.98;;
69890;SDS011;57170;43.964;21.262;2023-04-24T01:11:48;16.48;;;11.32;;
69890;SDS011;57170;43.964;21.262;2023-04-24T01:14:15;17.40;;;11.93;;
69890;SDS011;57170;43.964;21.262;2023-04-24T01:16:41;18.02;;;12.50;;
69890;SDS011;57170;43.964;21.262;2023-04-24T01:19:07;18.77;;;13.60;;
69890;SDS011;57170;43.964;21.262;2023-04-24T01:21:34;27.58;;;18.75;;
69890;SDS011;57170;43.964;21.262;2023-04-24T01:24:02;17.20;;;12.48;;
69890;SDS011;57170;43.964;21.262;2023-04-24T01:26:28;12.48;;;10.20;;
69890;SDS011;57170;43.964;21.262;2023-04-24T01:28:55;17.15;;;9.57;;
69890;SDS011;57170;43.964;21.262;2023-04-24T01:31:21;13.00;;;9.73;;
69890;SDS011;57170;43.964;21.262;2023-04-24T01:33:48;19.08;;;11.45;;
69890;SDS011;57170;43.964;21.262;2023-04-24T01:36:15;19.63;;;9.75;;
69890;SDS011;57170;43.964;21.262;2023-04-24T01:38:42;15.98;;;10.25;;
69890;SDS011;57170;43.964;21.262;2023-04-24T01:41:08;16.02;;;10.50;;
69890;SDS011;57170;43.964;21.262;2023-04-24T01:43:34;13.48;;;11.13;;
69890;SDS011;57170;43.964;21.262;2023-04-24T01:46:01;17.88;;;11.90;;
69890;SDS011;57170;43.964;21.262;2023-04-24T01:48:27;17.75;;;9.05;;
69890;SDS011;57170;43.964;21.262;2023-04-24T01:50:53;18.30;;;10.75;;
69890;SDS011;57170;43.964;21.262;2023-04-24T01:53:20;20.65;;;12.13;;
69890;SDS011;57170;43.964;21.262;2023-04-24T01:55:46;17.00;;;10.52;;
69890;SDS011;57170;43.964;21.262;2023-04-24T01:58:12;16.23;;;12.02;;
69890;SDS011;57170;43.964;21.262;2023-04-24T02:00:38;19.70;;;13.50;;
69890;SDS011;57170;43.964;21.262;2023-04-24T02:03:04;16.63;;;12.00;;
69890;SDS011;57170;43.964;21.262;2023-04-24T02:05:30;15.20;;;9.82;;
69890;SDS011;57170;43.964;21.262;2023-04-24T02:07:57;15.30;;;9.77;;
69890;SDS011;57170;43.964;21.262;2023-04-24T02:10:23;25.48;;;11.43;;
69890;SDS011;57170;43.964;21.262;2023-04-24T02:12:50;12.13;;;10.23;;
69890;SDS011;57170;43.964;21.262;2023-04-24T02:15:16;15.13;;;11.02;;
69890;SDS011;57170;43.964;21.262;2023-04-24T02:17:43;13.30;;;10.02;;
69890;SDS011;57170;43.964;21.262;2023-04-24T02:20:09;21.98;;;15.00;;
69890;SDS011;57170;43.964;21.262;2023-04-24T02:22:35;18.40;;;11.85;;
69890;SDS011;57170;43.964;21.262;2023-04-24T02:25:01;14.50;;;11.18;;
69890;SDS011;57170;43.964;21.262;2023-04-24T02:27:28;14.07;;;9.25;;
69890;SDS011;57170;43.964;21.262;2023-04-24T02:29:54;14.80;;;9.32;;
69890;SDS011;57170;43.964;21.262;2023-04-24T02:32:20;14.48;;;9.02;;
69890;SDS011;57170;43.964;21.262;2023-04-24T02:34:46;14.85;;;9.85;;
69890;SDS011;57170;43.964;21.262;2023-04-24T02:37:12;11.85;;;8.82;;
69890;SDS011;57170;43.964;21.262;2023-04-24T02:39:39;14.27;;;10.02;;
69890;SDS011;57170;43.964;21.262;2023-04-24T02:42:05;13.15;;;10.73;;
69890;SDS011;57170;43.964;21.262;2023-04-24T02:44:33;14.55;;;10.05;;
69890;SDS011;57170;43.964;21.262;2023-04-24T02:46:59;21.77;;;11.68;;
69890;SDS011;57170;43.964;21.262;2023-04-24T02:49:25;22.83;;;13.60;;
69890;SDS011;57170;43.964;21.262;2023-04-24T02:51:52;18.10;;;10.57;;
69890;SDS011;57170;43.964;21.262;2023-04-24T02:54:18;14.85;;;9.88;;
69890;SDS011;57170;43.964;21.262;2023-04-24T02:56:44;13.23;;;9.50;;
69890;SDS011;57170;43.964;21.262;2023-04-24T02:59:10;12.52;;;8.73;;
69890;SDS011;57170;43.964;21.262;2023-04-24T03:01:36;14.52;;;9.95;;
69890;SDS011;57170;43.964;21.262;2023-04-24T03:04:02;15.85;;;10.40;;
69890;SDS011;57170;43.964;21.262;2023-04-24T03:06:28;12.40;;;10.88;;
69890;SDS011;57170;43.964;21.262;2023-04-24T03:08:56;13.13;;;9.32;;
69890;SDS011;57170;43.964;21.262;2023-04-24T03:11:22;15.25;;;11.02;;
69890;SDS011;57170;43.964;21.262;2023-04-24T03:13:48;19.48;;;10.35;;
69890;SDS011;57170;43.964;21.262;2023-04-24T03:16:14;16.15;;;10.50;;
69890;SDS011;57170;43.964;21.262;2023-04-24T03:18:40;14.88;;;11.45;;
69890;SDS011;57170;43.964;21.262;2023-04-24T03:21:07;19.27;;;11.55;;
69890;SDS011;57170;43.964;21.262;2023-04-24T03:23:33;11.85;;;9.70;;
69890;SDS011;57170;43.964;21.262;2023-04-24T03:25:59;16.50;;;10.07;;
69890;SDS011;57170;43.964;21.262;2023-04-24T03:28:25;14.82;;;11.27;;
69890;SDS011;57170;43.964;21.262;2023-04-24T03:30:51;17.13;;;11.27;;
69890;SDS011;57170;43.964;21.262;2023-04-24T03:33:17;15.38;;;11.05;;
69890;SDS011;57170;43.964;21.262;2023-04-24T03:35:43;28.00;;;13.75;;
69890;SDS011;57170;43.964;21.262;2023-04-24T03:38:10;13.75;;;11.13;;
69890;SDS011;57170;43.964;21.262;2023-04-24T03:40:36;12.90;;;10.00;;
69890;SDS011;57170;43.964;21.262;2023-04-24T03:43:02;17.15;;;11.75;;
69890;SDS011;57170;43.964;21.262;2023-04-24T03:45:28;13.52;;;10.73;;
69890;SDS011;57170;43.964;21.262;2023-04-24T03:47:54;15.73;;;11.15;;
69890;SDS011;57170;43.964;21.262;2023-04-24T03:50:21;12.85;;;10.48;;
69890;SDS011;57170;43.964;21.262;2023-04-24T03:52:47;14.65;;;11.48;;
69890;SDS011;57170;43.964;21.262;2023-04-24T03:55:13;12.15;;;10.48;;
69890;SDS011;57170;43.964;21.262;2023-04-24T03:57:40;14.50;;;10.48;;
69890;SDS011;57170;43.964;21.262;2023-04-24T04:00:06;17.63;;;11.32;;
69890;SDS011;57170;43.964;21.262;2023-04-24T04:02:33;13.40;;;11.05;;
69890;SDS011;57170;43.964;21.262;2023-04-24T04:05:00;15.55;;;11.70;;
69890;SDS011;57170;43.964;21.262;2023-04-24T04:07:27;14.75;;;12.60;;
69890;SDS011;57170;43.964;21.262;2023-04-24T04:09:54;18.33;;;13.07;;
69890;SDS011;57170;43.964;21.262;2023-04-24T04:12:20;16.17;;;12.63;;
69890;SDS011;57170;43.964;21.262;2023-04-24T04:14:47;15.02;;;12.88;;
69890;SDS011;57170;43.964;21.262;2023-04-24T04:17:13;16.95;;;14.05;;
69890;SDS011;57170;43.964;21.262;2023-04-24T04:19:39;16.60;;;12.13;;
69890;SDS011;57170;43.964;21.262;2023-04-24T04:22:05;16.13;;;12.55;;
69890;SDS011;57170;43.964;21.262;2023-04-24T04:24:33;16.02;;;13.55;;
69890;SDS011;57170;43.964;21.262;2023-04-24T04:27:03;22.17;;;12.13;;
69890;SDS011;57170;43.964;21.262;2023-04-24T04:29:29;16.27;;;13.45;;
69890;SDS011;57170;43.964;21.262;2023-04-24T04:31:56;16.33;;;12.43;;
69890;SDS011;57170;43.964;21.262;2023-04-24T04:34:23;18.42;;;11.75;;
69890;SDS011;57170;43.964;21.262;2023-04-24T04:36:49;15.20;;;11.50;;
69890;SDS011;57170;43.964;21.262;2023-04-24T04:39:15;15.02;;;12.38;;
69890;SDS011;57170;43.964;21.262;2023-04-24T04:41:43;20.80;;;12.45;;
69890;SDS011;57170;43.964;21.262;2023-04-24T04:44:11;15.02;;;12.32;;
69890;SDS011;57170;43.964;21.262;2023-04-24T04:46:37;16.60;;;12.35;;
69890;SDS011;57170;43.964;21.262;2023-04-24T04:49:04;17.40;;;12.18;;
69890;SDS011;57170;43.964;21.262;2023-04-24T04:51:30;19.45;;;11.55;;
69890;SDS011;57170;43.964;21.262;2023-04-24T04:53:56;15.13;;;10.32;;
69890;SDS011;57170;43.964;21.262;2023-04-24T04:56:23;14.68;;;10.75;;
69890;SDS011;57170;43.964;21.262;2023-04-24T04:58:49;12.07;;;10.60;;
69890;SDS011;57170;43.964;21.262;2023-04-24T05:01:16;13.35;;;10.88;;
69890;SDS011;57170;43.964;21.262;2023-04-24T05:03:42;12.65;;;10.73;;
69890;SDS011;57170;43.964;21.262;2023-04-24T05:06:08;10.95;;;9.80;;
69890;SDS011;57170;43.964;21.262;2023-04-24T05:08:35;13.60;;;10.18;;
69890;SDS011;57170;43.964;21.262;2023-04-24T05:11:01;15.77;;;9.80;;
69890;SDS011;57170;43.964;21.262;2023-04-24T05:13:27;15.20;;;10.02;;
69890;SDS011;57170;43.964;21.262;2023-04-24T05:15:53;14.07;;;10.07;;
69890;SDS011;57170;43.964;21.262;2023-04-24T05:18:19;16.23;;;9.40;;
69890;SDS011;57170;43.964;21.262;2023-04-24T05:20:45;11.32;;;10.13;;
69890;SDS011;57170;43.964;21.262;2023-04-24T05:23:11;11.68;;;9.32;;
69890;SDS011;57170;43.964;21.262;2023-04-24T05:25:37;11.68;;;10.27;;
69890;SDS011;57170;43.964;21.262;2023-04-24T05:28:05;12.25;;;9.07;;
69890;SDS011;57170;43.964;21.262;2023-04-24T05:30:31;10.85;;;9.85;;
69890;SDS011;57170;43.964;21.262;2023-04-24T05:32:57;12.95;;;9.00;;
69890;SDS011;57170;43.964;21.262;2023-04-24T05:35:23;12.57;;;9.55;;
69890;SDS011;57170;43.964;21.262;2023-04-24T05:37:50;13.77;;;9.55;;
69890;SDS011;57170;43.964;21.262;2023-04-24T05:40:16;10.32;;;8.23;;
69890;SDS011;57170;43.964;21.262;2023-04-24T05:42:42;11.07;;;9.98;;
69890;SDS011;57170;43.964;21.262;2023-04-24T05:45:08;10.98;;;9.30;;
69890;SDS011;57170;43.964;21.262;2023-04-24T05:47:36;8.88;;;7.97;;
69890;SDS011;57170;43.964;21.262;2023-04-24T05:50:02;12.73;;;9.70;;
69890;SDS011;57170;43.964;21.262;2023-04-24T05:52:29;11.82;;;7.97;;
69890;SDS011;57170;43.964;21.262;2023-04-24T05:54:55;9.95;;;8.13;;
69890;SDS011;57170;43.964;21.262;2023-04-24T05:57:21;10.85;;;9.10;;
69890;SDS011;57170;43.964;21.262;2023-04-24T05:59:47;8.38;;;7.53;;
69890;SDS011;57170;43.964;21.262;2023-04-24T06:02:13;11.52;;;8.38;;
69890;SDS011;57170;43.964;21.262;2023-04-24T06:04:39;9.40;;;8.40;;
69890;SDS011;57170;43.964;21.262;2023-04-24T06:07:06;10.55;;;8.07;;
69890;SDS011;57170;43.964;21.262;2023-04-24T06:09:32;9.80;;;8.25;;
69890;SDS011;57170;43.964;21.262;2023-04-24T06:11:58;10.70;;;7.93;;
69890;SDS011;57170;43.964;21.262;2023-04-24T06:14:25;11.30;;;8.90;;
69890;SDS011;57170;43.964;21.262;2023-04-24T06:16:51;9.07;;;8.18;;
69890;SDS011;57170;43.964;21.262;2023-04-24T06:19:17;12.02;;;8.45;;
69890;SDS011;57170;43.964;21.262;2023-04-24T06:21:43;12.68;;;9.10;;
69890;SDS011;57170;43.964;21.262;2023-04-24T06:24:09;9.30;;;8.23;;
69890;SDS011;57170;43.964;21.262;2023-04-24T06:26:35;9.18;;;8.23;;
69890;SDS011;57170;43.964;21.262;2023-04-24T06:29:01;12.23;;;8.85;;
69890;SDS011;57170;43.964;21.262;2023-04-24T06:31:27;13.35;;;9.23;;
69890;SDS011;57170;43.964;21.262;2023-04-24T06:33:53;9.30;;;8.35;;
69890;SDS011;57170;43.964;21.262;2023-04-24T06:36:20;10.18;;;7.35;;
69890;SDS011;57170;43.964;21.262;2023-04-24T06:38:46;10.50;;;8.15;;
69890;SDS011;57170;43.964;21.262;2023-04-24T06:41:12;9.32;;;8.38;;
69890;SDS011;57170;43.964;21.262;2023-04-24T06:43:38;9.93;;;7.78;;
69890;SDS011;57170;43.964;21.262;2023-04-24T06:46:04;12.00;;;8.25;;
69890;SDS011;57170;43.964;21.262;2023-04-24T06:48:30;9.10;;;8.20;;
69890;SDS011;57170;43.964;21.262;2023-04-24T06:50:56;8.20;;;6.93;;
69890;SDS011;57170;43.964;21.262;2023-04-24T06:53:22;8.63;;;6.43;;
69890;SDS011;57170;43.964;21.262;2023-04-24T06:55:49;8.82;;;7.43;;
69890;SDS011;57170;43.964;21.262;2023-04-24T06:58:15;8.40;;;7.03;;
69890;SDS011;57170;43.964;21.262;2023-04-24T07:00:41;8.60;;;7.70;;
69890;SDS011;57170;43.964;21.262;2023-04-24T07:03:07;8.60;;;7.80;;
69890;SDS011;57170;43.964;21.262;2023-04-24T07:05:33;8.55;;;7.18;;
69890;SDS011;57170;43.964;21.262;2023-04-24T07:08:00;9.35;;;7.68;;
69890;SDS011;57170;43.964;21.262;2023-04-24T07:10:27;8.38;;;7.10;;
69890;SDS011;57170;43.964;21.262;2023-04-24T07:12:54;11.57;;;7.25;;
69890;SDS011;57170;43.964;21.262;2023-04-24T07:15:21;8.38;;;7.50;;
69890;SDS011;57170;43.964;21.262;2023-04-24T07:17:47;12.80;;;7.72;;
69890;SDS011;57170;43.964;21.262;2023-04-24T07:20:13;10.13;;;8.02;;
69890;SDS011;57170;43.964;21.262;2023-04-24T07:22:39;8.40;;;7.40;;
69890;SDS011;57170;43.964;21.262;2023-04-24T07:25:06;10.15;;;6.75;;
69890;SDS011;57170;43.964;21.262;2023-04-24T07:27:33;8.77;;;6.40;;
69890;SDS011;57170;43.964;21.262;2023-04-24T07:29:59;6.55;;;5.70;;
69890;SDS011;57170;43.964;21.262;2023-04-24T07:32:25;10.07;;;9.07;;
69890;SDS011;57170;43.964;21.262;2023-04-24T07:34:51;8.45;;;6.57;;
69890;SDS011;57170;43.964;21.262;2023-04-24T07:37:18;7.55;;;6.05;;
69890;SDS011;57170;43.964;21.262;2023-04-24T07:39:44;7.30;;;5.85;;
69890;SDS011;57170;43.964;21.262;2023-04-24T07:42:10;9.95;;;6.90;;
69890;SDS011;57170;43.964;21.262;2023-04-24T07:44:36;8.18;;;6.47;;
69890;SDS011;57170;43.964;21.262;2023-04-24T07:47:02;7.57;;;5.63;;
69890;SDS011;57170;43.964;21.262;2023-04-24T07:49:28;9.73;;;6.57;;
69890;SDS011;57170;43.964;21.262;2023-04-24T07:51:54;9.45;;;6.30;;
69890;SDS011;57170;43.964;21.262;2023-04-24T07:54:20;8.80;;;6.30;;
69890;SDS011;57170;43.964;21.262;2023-04-24T07:56:47;9.32;;;6.72;;
69890;SDS011;57170;43.964;21.262;2023-04-24T07:59:14;10.68;;;6.85;;
69890;SDS011;57170;43.964;21.262;2023-04-24T08:01:40;9.20;;;6.47;;
69890;SDS011;57170;43.964;21.262;2023-04-24T08:04:07;9.82;;;7.47;;
69890;SDS011;57170;43.964;21.262;2023-04-24T08:06:33;9.68;;;7.28;;
69890;SDS011;57170;43.964;21.262;2023-04-24T08:08:59;8.02;;;6.68;;
69890;SDS011;57170;43.964;21.262;2023-04-24T08:11:26;10.48;;;8.73;;
69890;SDS011;57170;43.964;21.262;2023-04-24T08:13:52;9.57;;;7.35;;
69890;SDS011;57170;43.964;21.262;2023-04-24T08:16:19;7.68;;;6.07;;
69890;SDS011;57170;43.964;21.262;2023-04-24T08:18:45;8.93;;;7.13;;
69890;SDS011;57170;43.964;21.262;2023-04-24T08:21:11;6.70;;;5.95;;
69890;SDS011;57170;43.964;21.262;2023-04-24T08:23:42;10.23;;;7.25;;
69890;SDS011;57170;43.964;21.262;2023-04-24T08:26:08;9.48;;;6.60;;
69890;SDS011;57170;43.964;21.262;2023-04-24T08:28:35;7.47;;;6.55;;
69890;SDS011;57170;43.964;21.262;2023-04-24T08:31:01;6.85;;;5.82;;
69890;SDS011;57170;43.964;21.262;2023-04-24T08:33:27;9.40;;;6.05;;
69890;SDS011;57170;43.964;21.262;2023-04-24T08:35:59;7.97;;;6.80;;
69890;SDS011;57170;43.964;21.262;2023-04-24T08:38:25;10.20;;;7.30;;
69890;SDS011;57170;43.964;21.262;2023-04-24T08:40:52;10.10;;;6.20;;
69890;SDS011;57170;43.964;21.262;2023-04-24T08:43:18;11.10;;;6.68;;
69890;SDS011;57170;43.964;21.262;2023-04-24T08:45:47;9.18;;;7.25;;
69890;SDS011;57170;43.964;21.262;2023-04-24T08:48:13;7.80;;;6.65;;
69890;SDS011;57170;43.964;21.262;2023-04-24T08:50:40;6.95;;;6.05;;
69890;SDS011;57170;43.964;21.262;2023-04-24T08:53:08;9.02;;;6.53;;
69890;SDS011;57170;43.964;21.262;2023-04-24T08:55:34;10.13;;;6.53;;
69890;SDS011;57170;43.964;21.262;2023-04-24T08:58:01;11.75;;;6.93;;
69890;SDS011;57170;43.964;21.262;2023-04-24T09:00:28;12.07;;;6.63;;
69890;SDS011;57170;43.964;21.262;2023-04-24T09:02:54;9.90;;;7.15;;
69890;SDS011;57170;43.964;21.262;2023-04-24T09:05:21;8.23;;;6.72;;
69890;SDS011;57170;43.964;21.262;2023-04-24T09:07:49;9.43;;;6.38;;
69890;SDS011;57170;43.964;21.262;2023-04-24T09:10:19;6.35;;;5.75;;
69890;SDS011;57170;43.964;21.262;2023-04-24T09:12:45;8.27;;;6.22;;
69890;SDS011;57170;43.964;21.262;2023-04-24T09:15:12;8.95;;;5.82;;
69890;SDS011;57170;43.964;21.262;2023-04-24T09:17:38;9.32;;;6.22;;
69890;SDS011;57170;43.964;21.262;2023-04-24T09:20:04;7.18;;;6.47;;
69890;SDS011;57170;43.964;21.262;2023-04-24T09:22:31;7.03;;;6.32;;
69890;SDS011;57170;43.964;21.262;2023-04-24T09:25:04;8.07;;;6.60;;
69890;SDS011;57170;43.964;21.262;2023-04-24T09:27:32;8.55;;;6.15;;
69890;SDS011;57170;43.964;21.262;2023-04-24T09:29:58;7.10;;;6.40;;
69890;SDS011;57170;43.964;21.262;2023-04-24T09:32:25;8.73;;;6.22;;
69890;SDS011;57170;43.964;21.262;2023-04-24T09:37:43;6.20;;;5.60;;
69890;SDS011;57170;43.964;21.262;2023-04-24T09:40:14;6.70;;;5.88;;
69890;SDS011;57170;43.964;21.262;2023-04-24T09:42:43;8.65;;;5.90;;
69890;SDS011;57170;43.964;21.262;2023-04-24T09:45:10;8.68;;;5.60;;
69890;SDS011;57170;43.964;21.262;2023-04-24T09:47:40;7.25;;;5.32;;
69890;SDS011;57170;43.964;21.262;2023-04-24T09:50:10;7.43;;;6.05;;
69890;SDS011;57170;43.964;21.262;2023-04-24T09:52:39;8.68;;;6.82;;
69890;SDS011;57170;43.964;21.262;2023-04-24T09:55:16;8.38;;;6.57;;
69890;SDS011;57170;43.964;21.262;2023-04-24T09:57:53;8.95;;;6.15;;
69890;SDS011;57170;43.964;21.262;2023-04-24T10:00:28;6.93;;;6.22;;
69890;SDS011;57170;43.964;21.262;2023-04-24T10:02:59;7.47;;;5.00;;
69890;SDS011;57170;43.964;21.262;2023-04-24T10:08:01;9.43;;;5.80;;
69890;SDS011;57170;43.964;21.262;2023-04-24T10:10:28;7.30;;;5.47;;
69890;SDS011;57170;43.964;21.262;2023-04-24T10:12:55;7.63;;;6.03;;
69890;SDS011;57170;43.964;21.262;2023-04-24T10:15:21;7.63;;;5.72;;
69890;SDS011;57170;43.964;21.262;2023-04-24T10:17:51;6.82;;;5.32;;
69890;SDS011;57170;43.964;21.262;2023-04-24T10:20:24;6.70;;;5.78;;
69890;SDS011;57170;43.964;21.262;2023-04-24T10:22:51;6.93;;;5.72;;
69890;SDS011;57170;43.964;21.262;2023-04-24T10:25:18;9.10;;;6.20;;
69890;SDS011;57170;43.964;21.262;2023-04-24T10:27:45;11.35;;;6.15;;
69890;SDS011;57170;43.964;21.262;2023-04-24T10:30:12;7.72;;;6.22;;
69890;SDS011;57170;43.964;21.262;2023-04-24T10:32:39;9.10;;;6.20;;
69890;SDS011;57170;43.964;21.262;2023-04-24T10:35:08;6.30;;;5.63;;
69890;SDS011;57170;43.964;21.262;2023-04-24T10:37:35;9.30;;;6.82;;
69890;SDS011;57170;43.964;21.262;2023-04-24T10:40:02;9.10;;;5.47;;
69890;SDS011;57170;43.964;21.262;2023-04-24T10:42:29;7.68;;;5.65;;
69890;SDS011;57170;43.964;21.262;2023-04-24T10:44:55;8.90;;;6.00;;
69890;SDS011;57170;43.964;21.262;2023-04-24T10:47:23;6.35;;;4.95;;
69890;SDS011;57170;43.964;21.262;2023-04-24T10:49:50;6.18;;;5.22;;
69890;SDS011;57170;43.964;21.262;2023-04-24T10:52:17;7.90;;;5.40;;
69890;SDS011;57170;43.964;21.262;2023-04-24T10:54:46;7.45;;;5.35;;
69890;SDS011;57170;43.964;21.262;2023-04-24T10:59:44;23.38;;;7.75;;
69890;SDS011;57170;43.964;21.262;2023-04-24T11:02:11;13.00;;;6.90;;
69890;SDS011;57170;43.964;21.262;2023-04-24T11:04:40;8.32;;;5.72;;
69890;SDS011;57170;43.964;21.262;2023-04-24T11:07:08;6.72;;;5.40;;
69890;SDS011;57170;43.964;21.262;2023-04-24T11:09:35;5.90;;;5.30;;
69890;SDS011;57170;43.964;21.262;2023-04-24T11:12:05;7.78;;;6.35;;
69890;SDS011;57170;43.964;21.262;2023-04-24T11:20:08;13.73;;;6.07;;
69890;SDS011;57170;43.964;21.262;2023-04-24T11:22:35;9.10;;;6.05;;
69890;SDS011;57170;43.964;21.262;2023-04-24T11:25:02;5.95;;;5.35;;
69890;SDS011;57170;43.964;21.262;2023-04-24T11:27:32;6.80;;;6.00;;
69890;SDS011;57170;43.964;21.262;2023-04-24T11:30:04;7.55;;;6.03;;
69890;SDS011;57170;43.964;21.262;2023-04-24T11:34:57;9.10;;;5.82;;
69890;SDS011;57170;43.964;21.262;2023-04-24T11:37:24;12.00;;;5.63;;
69890;SDS011;57170;43.964;21.262;2023-04-24T11:39:56;7.03;;;5.55;;
69890;SDS011;57170;43.964;21.262;2023-04-24T11:42:23;10.43;;;6.35;;
69890;SDS011;57170;43.964;21.262;2023-04-24T11:44:51;10.10;;;6.53;;
69890;SDS011;57170;43.964;21.262;2023-04-24T11:47:18;8.35;;;5.82;;
69890;SDS011;57170;43.964;21.262;2023-04-24T11:49:44;7.50;;;5.15;;
69890;SDS011;57170;43.964;21.262;2023-04-24T11:52:11;7.65;;;5.50;;
69890;SDS011;57170;43.964;21.262;2023-04-24T11:54:50;7.30;;;5.40;;
69890;SDS011;57170;43.964;21.262;2023-04-24T11:57:18;10.35;;;5.80;;
69890;SDS011;57170;43.964;21.262;2023-04-24T11:59:45;9.93;;;5.85;;
69890;SDS011;57170;43.964;21.262;2023-04-24T12:02:22;9.13;;;6.38;;
69890;SDS011;57170;43.964;21.262;2023-04-24T12:04:48;8.05;;;6.47;;
69890;SDS011;57170;43.964;21.262;2023-04-24T12:07:14;10.00;;;6.90;;
69890;SDS011;57170;43.964;21.262;2023-04-24T12:09:47;7.03;;;5.93;;
69890;SDS011;57170;43.964;21.262;2023-04-24T12:12:14;9.77;;;5.75;;
69890;SDS011;57170;43.964;21.262;2023-04-24T12:17:13;9.13;;;5.03;;
69890;SDS011;57170;43.964;21.262;2023-04-24T12:19:44;8.40;;;5.60;;
69890;SDS011;57170;43.964;21.262;2023-04-24T12:22:11;7.30;;;5.55;;
69890;SDS011;57170;43.964;21.262;2023-04-24T12:24:55;7.78;;;5.90;;
69890;SDS011;57170;43.964;21.262;2023-04-24T12:27:21;6.43;;;5.63;;
69890;SDS011;57170;43.964;21.262;2023-04-24T12:29:51;7.40;;;4.65;;
69890;SDS011;57170;43.964;21.262;2023-04-24T12:32:18;11.18;;;5.28;;
69890;SDS011;57170;43.964;21.262;2023-04-24T12:35:03;7.68;;;5.25;;
69890;SDS011;57170;43.964;21.262;2023-04-24T12:37:32;8.45;;;5.75;;
69890;SDS011;57170;43.964;21.262;2023-04-24T12:42:28;9.52;;;5.78;;
69890;SDS011;57170;43.964;21.262;2023-04-24T12:45:13;12.98;;;6.07;;
69890;SDS011;57170;43.964;21.262;2023-04-24T12:47:40;12.82;;;5.50;;
69890;SDS011;57170;43.964;21.262;2023-04-24T12:50:07;12.13;;;5.90;;
69890;SDS011;57170;43.964;21.262;2023-04-24T12:52:33;22.52;;;10.55;;
69890;SDS011;57170;43.964;21.262;2023-04-24T12:55:00;17.70;;;11.93;;
69890;SDS011;57170;43.964;21.262;2023-04-24T12:57:27;20.17;;;11.52;;
69890;SDS011;57170;43.964;21.262;2023-04-24T12:59:57;11.80;;;8.55;;
69890;SDS011;57170;43.964;21.262;2023-04-24T13:02:24;14.55;;;9.50;;
69890;SDS011;57170;43.964;21.262;2023-04-24T13:04:51;13.60;;;8.48;;
69890;SDS011;57170;43.964;21.262;2023-04-24T13:07:17;13.23;;;7.65;;
69890;SDS011;57170;43.964;21.262;2023-04-24T13:09:44;10.50;;;7.22;;
69890;SDS011;57170;43.964;21.262;2023-04-24T13:12:10;9.50;;;6.47;;
69890;SDS011;57170;43.964;21.262;2023-04-24T13:14:37;10.25;;;8.13;;
69890;SDS011;57170;43.964;21.262;2023-04-24T13:17:03;18.83;;;9.93;;
69890;SDS011;57170;43.964;21.262;2023-04-24T13:19:34;13.25;;;8.85;;
69890;SDS011;57170;43.964;21.262;2023-04-24T13:22:01;13.85;;;8.77;;
69890;SDS011;57170;43.964;21.262;2023-04-24T13:24:27;15.70;;;10.07;;
69890;SDS011;57170;43.964;21.262;2023-04-24T13:26:53;12.68;;;7.60;;
69890;SDS011;57170;43.964;21.262;2023-04-24T13:29:19;15.00;;;8.40;;
69890;SDS011;57170;43.964;21.262;2023-04-24T13:31:46;12.98;;;8.52;;
69890;SDS011;57170;43.964;21.262;2023-04-24T13:34:12;13.18;;;8.38;;
69890;SDS011;57170;43.964;21.262;2023-04-24T13:36:39;12.43;;;7.43;;
69890;SDS011;57170;43.964;21.262;2023-04-24T13:39:05;11.77;;;8.13;;
69890;SDS011;57170;43.964;21.262;2023-04-24T13:41:34;16.48;;;9.30;;
69890;SDS011;57170;43.964;21.262;2023-04-24T13:44:01;18.25;;;13.02;;
69890;SDS011;57170;43.964;21.262;2023-04-24T13:46:27;15.77;;;11.95;;
69890;SDS011;57170;43.964;21.262;2023-04-24T13:48:53;10.18;;;8.43;;
69890;SDS011;57170;43.964;21.262;2023-04-24T13:51:20;18.52;;;13.57;;
69890;SDS011;57170;43.964;21.262;2023-04-24T13:53:46;12.88;;;9.20;;
69890;SDS011;57170;43.964;21.262;2023-04-24T13:56:12;12.85;;;8.77;;
69890;SDS011;57170;43.964;21.262;2023-04-24T13:58:39;14.57;;;10.63;;
69890;SDS011;57170;43.964;21.262;2023-04-24T14:01:05;13.80;;;9.50;;
69890;SDS011;57170;43.964;21.262;2023-04-24T14:03:32;10.98;;;8.40;;
69890;SDS011;57170;43.964;21.262;2023-04-24T14:05:59;14.13;;;9.77;;
69890;SDS011;57170;43.964;21.262;2023-04-24T14:08:25;14.00;;;9.02;;
69890;SDS011;57170;43.964;21.262;2023-04-24T14:10:51;13.80;;;9.25;;
69890;SDS011;57170;43.964;21.262;2023-04-24T14:13:17;12.45;;;9.07;;
69890;SDS011;57170;43.964;21.262;2023-04-24T14:15:43;14.45;;;10.27;;
69890;SDS011;57170;43.964;21.262;2023-04-24T14:18:10;11.32;;;7.82;;
69890;SDS011;57170;43.964;21.262;2023-04-24T14:20:36;10.90;;;8.43;;
69890;SDS011;57170;43.964;21.262;2023-04-24T14:23:03;11.60;;;8.27;;
69890;SDS011;57170;43.964;21.262;2023-04-24T14:25:29;11.38;;;8.57;;
69890;SDS011;57170;43.964;21.262;2023-04-24T14:27:56;9.55;;;7.45;;
69890;SDS011;57170;43.964;21.262;2023-04-24T14:30:22;10.57;;;8.18;;
69890;SDS011;57170;43.964;21.262;2023-04-24T14:32:48;13.13;;;7.22;;
69890;SDS011;57170;43.964;21.262;2023-04-24T14:35:14;11.43;;;7.03;;
69890;SDS011;57170;43.964;21.262;2023-04-24T14:37:40;8.38;;;7.47;;
69890;SDS011;57170;43.964;21.262;2023-04-24T14:40:07;9.77;;;6.82;;